KMSP

Minneapolis-St Paul International / Wold-Chamberlain Airport

Minneapolis, Minnesota, USA
METAR KMSP 191534Z 35011G17KT 10SM BKN015 M03/M07 A3010 RMK AO2 T10281067
Observed Flight Rules
Nov-19 @ 15:34 UTC (7 minutes ago) Marginal Visual Flight Rules
Wind Visibility Clouds
350° at 11 knots
 Gusting to 17 knots
10 miles
  • Broken at 1,500' AGL
Temperatures Readings
Current -3°C / 27°F
Dewpoint -7°C / 19°F
Humidity 74%
Altimeter 30.1" Hg
Pressure 1019 hPa
Elevation 265
METAR KMSP 191534Z 35011G17KT 10SM BKN015 M03/M07 A3010 RMK AO2 T10281067
Observed Flight Rules
Nov-19 @ 15:34 UTC
(7 minutes ago)
MVFR
Wind Visibility
350° at 11 knots
 Gusting to 17 knots
10 miles
Clouds
  • Broken at 1,500' AGL
Temperature Dewpoint
-3°C / 27°F -7°C / 19°F
Humidity Altimeter Pressure
74% 30.1" Hg 1019 hPa